Time;durP1;ratioP1;P1;durP2;ratioP2;P2;SDS_P1;SDS_P2;PMS_P1;PMS_P2;Temp;Humidity;BMP_temperature;BMP_pressure;BME280_temperature;BME280_humidity;BME280_pressure;Samples;Min_cycle;Max_cycle;Signal;HPM_P1;HPM_P2
2023/05/06 00:01:47;;;;;;;15.52;10.73;;;;;;;;;;5080568;28;20052;-64
2023/05/06 00:04:14;;;;;;;14.43;10.15;;;;;;;;;;5081334;27;20118;-64
2023/05/06 00:06:40;;;;;;;13.30;10.02;;;;;;;;;;5094874;27;20043;-64
2023/05/06 00:09:06;;;;;;;13.88;9.98;;;;;;;;;;5098590;28;20370;-64
2023/05/06 00:11:32;;;;;;;16.20;9.68;;;;;;;;;;5080246;28;20043;-64
2023/05/06 00:13:59;;;;;;;16.92;10.38;;;;;;;;;;5076940;28;20051;-64
2023/05/06 00:16:25;;;;;;;13.85;9.88;;;;;;;;;;5080841;28;20063;-64
2023/05/06 00:18:51;;;;;;;15.65;10.27;;;;;;;;;;5079294;28;20070;-64
2023/05/06 00:21:17;;;;;;;14.95;10.90;;;;;;;;;;5098583;28;20390;-64
2023/05/06 00:23:43;;;;;;;17.45;11.18;;;;;;;;;;5083952;28;20139;-64
2023/05/06 00:26:10;;;;;;;12.52;9.13;;;;;;;;;;5083566;28;20055;-64
2023/05/06 00:28:36;;;;;;;16.90;10.43;;;;;;;;;;5079905;28;20098;-64
2023/05/06 00:31:02;;;;;;;14.38;10.32;;;;;;;;;;5095712;27;20059;-64
2023/05/06 00:33:29;;;;;;;15.65;10.23;;;;;;;;;;5094869;28;20151;-64
2023/05/06 00:35:55;;;;;;;15.63;10.18;;;;;;;;;;5097888;27;20039;-64
2023/05/06 00:38:22;;;;;;;21.20;12.32;;;;;;;;;;5099482;28;20063;-64
2023/05/06 00:40:48;;;;;;;15.93;10.38;;;;;;;;;;5092994;28;20086;-64
2023/05/06 00:43:14;;;;;;;16.92;10.50;;;;;;;;;;5071991;28;20101;-64
2023/05/06 00:45:40;;;;;;;16.55;11.40;;;;;;;;;;5080113;28;20040;-65
2023/05/06 00:48:06;;;;;;;13.95;11.27;;;;;;;;;;5081475;28;20123;-64
2023/05/06 00:50:33;;;;;;;15.65;10.93;;;;;;;;;;5080977;28;20117;-64
2023/05/06 00:53:00;;;;;;;18.98;11.63;;;;;;;;;;5071395;28;20494;-64
2023/05/06 00:55:26;;;;;;;15.43;11.68;;;;;;;;;;5086021;27;20062;-64
2023/05/06 00:57:54;;;;;;;19.30;10.85;;;;;;;;;;5071764;28;20044;-64
2023/05/06 01:00:21;;;;;;;17.65;11.68;;;;;;;;;;5072742;28;20235;-64
2023/05/06 01:02:47;;;;;;;15.43;10.70;;;;;;;;;;5088710;27;20052;-64
2023/05/06 01:05:15;;;;;;;13.88;9.77;;;;;;;;;;5087575;27;21161;-64
2023/05/06 01:07:43;;;;;;;15.65;9.95;;;;;;;;;;5089553;28;20050;-64
2023/05/06 01:10:17;;;;;;;16.05;9.85;;;;;;;;;;5070185;27;20087;-64
2023/05/06 01:12:43;;;;;;;;;;;;;;;;;;5068060;28;20261;-64
2023/05/06 01:15:16;;;;;;;15.50;10.85;;;;;;;;;;5087073;27;19935;-65
2023/05/06 01:17:48;;;;;;;16.92;11.25;;;;;;;;;;5070047;28;20131;-64
2023/05/06 01:20:16;;;;;;;16.33;11.23;;;;;;;;;;5089753;27;20083;-64
2023/05/06 01:22:42;;;;;;;17.88;13.02;;;;;;;;;;5082759;28;20055;-64
2023/05/06 01:25:18;;;;;;;17.98;11.73;;;;;;;;;;5070490;28;20036;-64
2023/05/06 01:27:44;;;;;;;15.55;11.10;;;;;;;;;;5057570;27;20487;-64
2023/05/06 01:30:10;;;;;;;17.92;12.88;;;;;;;;;;5064779;28;20052;-64
2023/05/06 01:32:44;;;;;;;18.25;12.70;;;;;;;;;;5066154;28;20056;-64
2023/05/06 01:35:25;;;;;;;16.13;11.77;;;;;;;;;;5068034;28;21520;-65
2023/05/06 01:37:59;;;;;;;18.48;12.73;;;;;;;;;;5070182;28;20056;-64
2023/05/06 01:40:27;;;;;;;17.95;12.27;;;;;;;;;;5068646;28;20083;-64
2023/05/06 01:42:54;;;;;;;20.70;13.00;;;;;;;;;;5066804;28;20199;-64
2023/05/06 01:45:21;;;;;;;16.08;12.25;;;;;;;;;;5066783;28;20884;-64
2023/05/06 01:47:47;;;;;;;20.63;13.77;;;;;;;;;;5064558;28;20154;-65
2023/05/06 01:50:13;;;;;;;21.00;14.60;;;;;;;;;;5067945;28;20047;-64
2023/05/06 01:52:40;;;;;;;19.92;14.50;;;;;;;;;;5069718;28;20052;-64
2023/05/06 01:55:06;;;;;;;22.77;14.75;;;;;;;;;;5066971;28;20036;-64
2023/05/06 01:57:32;;;;;;;20.00;15.25;;;;;;;;;;5070300;28;20507;-65
2023/05/06 01:59:58;;;;;;;20.40;14.68;;;;;;;;;;5066270;28;20044;-63
2023/05/06 02:02:25;;;;;;;20.38;14.60;;;;;;;;;;5045399;28;20082;-64
2023/05/06 02:04:52;;;;;;;20.30;13.13;;;;;;;;;;5065266;28;20036;-64
2023/05/06 02:07:18;;;;;;;20.67;14.18;;;;;;;;;;5063625;28;20102;-64
2023/05/06 02:09:44;;;;;;;22.98;14.43;;;;;;;;;;5068714;28;20040;-65
2023/05/06 02:12:10;;;;;;;21.10;14.27;;;;;;;;;;5061060;28;20052;-64
2023/05/06 02:14:36;;;;;;;21.40;14.05;;;;;;;;;;5069933;28;20047;-64
2023/05/06 02:17:03;;;;;;;23.25;15.13;;;;;;;;;;5063761;28;20044;-64
2023/05/06 02:19:30;;;;;;;20.55;13.40;;;;;;;;;;5065069;28;20430;-64
2023/05/06 02:21:56;;;;;;;19.70;14.10;;;;;;;;;;5063410;28;20085;-64
2023/05/06 02:24:22;;;;;;;20.30;14.30;;;;;;;;;;5062836;28;20570;-64
2023/05/06 02:26:48;;;;;;;26.33;13.90;;;;;;;;;;5062298;28;20050;-64
2023/05/06 02:29:15;;;;;;;23.30;14.55;;;;;;;;;;5066115;28;20040;-64
2023/05/06 02:31:41;;;;;;;28.95;13.38;;;;;;;;;;5062250;28;20177;-64
2023/05/06 02:34:08;;;;;;;19.92;12.77;;;;;;;;;;5064451;28;20055;-64
2023/05/06 02:36:34;;;;;;;20.00;13.68;;;;;;;;;;5063686;28;21731;-64
2023/05/06 02:39:00;;;;;;;18.27;11.98;;;;;;;;;;5064462;28;20056;-65
2023/05/06 02:41:27;;;;;;;19.45;13.73;;;;;;;;;;5066237;28;20121;-64
2023/05/06 02:43:53;;;;;;;20.67;14.30;;;;;;;;;;5064853;28;20388;-64
2023/05/06 02:46:19;;;;;;;18.52;12.93;;;;;;;;;;5062048;28;20052;-64
2023/05/06 02:48:45;;;;;;;22.42;13.55;;;;;;;;;;5070782;28;20516;-64
2023/05/06 02:51:11;;;;;;;20.25;13.88;;;;;;;;;;5065386;28;20044;-64
2023/05/06 02:53:37;;;;;;;20.27;13.93;;;;;;;;;;5061962;28;20071;-64
2023/05/06 02:56:03;;;;;;;21.55;15.20;;;;;;;;;;5059424;28;20096;-64
2023/05/06 02:58:30;;;;;;;21.55;15.00;;;;;;;;;;5060539;28;22193;-64
2023/05/06 03:00:56;;;;;;;22.83;14.85;;;;;;;;;;5066609;28;20093;-64
2023/05/06 03:03:22;;;;;;;23.38;15.88;;;;;;;;;;5063424;28;20056;-64
2023/05/06 03:05:48;;;;;;;21.70;16.02;;;;;;;;;;5067981;28;20398;-64
2023/05/06 03:08:15;;;;;;;27.20;16.38;;;;;;;;;;5063784;28;20075;-64
2023/05/06 03:10:41;;;;;;;22.33;14.98;;;;;;;;;;5065177;28;20047;-64
2023/05/06 03:13:07;;;;;;;22.38;14.82;;;;;;;;;;5064770;28;20056;-65
2023/05/06 03:15:33;;;;;;;26.35;16.90;;;;;;;;;;5064295;28;20674;-64
2023/05/06 03:17:59;;;;;;;22.45;16.00;;;;;;;;;;5067967;28;20051;-64
2023/05/06 03:20:27;;;;;;;25.98;15.02;;;;;;;;;;5066916;28;20051;-64
2023/05/06 03:22:53;;;;;;;21.23;14.13;;;;;;;;;;5068225;28;20048;-64
2023/05/06 03:25:20;;;;;;;21.33;14.73;;;;;;;;;;5069786;28;20091;-64
2023/05/06 03:27:46;;;;;;;22.35;14.95;;;;;;;;;;5066216;28;20637;-64
2023/05/06 03:30:12;;;;;;;24.55;15.43;;;;;;;;;;5050315;28;20053;-64
2023/05/06 03:32:38;;;;;;;25.55;16.63;;;;;;;;;;5067866;28;20146;-64
2023/05/06 03:35:06;;;;;;;23.70;15.25;;;;;;;;;;5063648;28;20050;-64
2023/05/06 03:37:33;;;;;;;24.80;16.17;;;;;;;;;;5065372;28;20515;-64
2023/05/06 03:39:59;;;;;;;27.13;17.00;;;;;;;;;;5064237;28;20055;-64
2023/05/06 03:42:25;;;;;;;27.08;16.98;;;;;;;;;;5066865;28;20043;-64
2023/05/06 03:44:52;;;;;;;26.95;16.63;;;;;;;;;;5068631;28;20056;-64
2023/05/06 03:47:18;;;;;;;35.70;18.88;;;;;;;;;;5067932;28;20052;-64
2023/05/06 03:49:44;;;;;;;24.17;16.00;;;;;;;;;;5069986;28;20740;-64
2023/05/06 03:52:10;;;;;;;28.23;16.67;;;;;;;;;;5066375;28;20302;-64
2023/05/06 03:54:36;;;;;;;21.38;15.32;;;;;;;;;;5068440;28;20091;-64
2023/05/06 03:57:02;;;;;;;24.33;15.98;;;;;;;;;;5067831;28;20082;-64
2023/05/06 03:59:28;;;;;;;23.30;17.48;;;;;;;;;;5064655;28;20043;-64
2023/05/06 04:01:55;;;;;;;28.13;16.90;;;;;;;;;;5067470;28;20045;-64
2023/05/06 04:04:21;;;;;;;23.27;15.52;;;;;;;;;;5059511;28;20063;-64
2023/05/06 04:06:47;;;;;;;24.60;16.23;;;;;;;;;;5063571;28;20079;-64
2023/05/06 04:09:13;;;;;;;33.50;18.52;;;;;;;;;;5065653;28;20036;-64
2023/05/06 04:11:39;;;;;;;40.33;19.55;;;;;;;;;;5061885;28;20096;-64
2023/05/06 04:14:05;;;;;;;29.17;17.17;;;;;;;;;;5065049;28;20066;-64
2023/05/06 04:16:31;;;;;;;29.25;16.75;;;;;;;;;;5065534;28;20491;-64
2023/05/06 04:18:58;;;;;;;30.27;18.33;;;;;;;;;;5067547;28;20095;-64
2023/05/06 04:21:24;;;;;;;32.15;19.67;;;;;;;;;;5068347;28;20119;-64
2023/05/06 04:23:50;;;;;;;37.33;22.02;;;;;;;;;;5065710;28;20151;-64
2023/05/06 04:26:16;;;;;;;40.60;21.08;;;;;;;;;;5064899;28;20037;-64
2023/05/06 04:28:42;;;;;;;37.10;21.15;;;;;;;;;;5062423;28;20487;-64
2023/05/06 04:31:09;;;;;;;32.00;19.65;;;;;;;;;;5064077;28;20049;-65
2023/05/06 04:33:35;;;;;;;37.50;21.17;;;;;;;;;;5063405;28;20526;-64
2023/05/06 04:36:02;;;;;;;38.45;22.48;;;;;;;;;;5066728;28;20091;-65
2023/05/06 04:38:30;;;;;;;40.50;21.20;;;;;;;;;;5065422;28;20040;-64
2023/05/06 04:40:57;;;;;;;50.65;24.02;;;;;;;;;;5063331;28;20285;-67
2023/05/06 04:43:23;;;;;;;41.03;22.30;;;;;;;;;;5069971;28;20087;-67
2023/05/06 04:45:49;;;;;;;44.75;22.23;;;;;;;;;;5066379;28;20761;-65
2023/05/06 04:48:16;;;;;;;52.10;25.63;;;;;;;;;;5070961;28;20130;-64
2023/05/06 04:50:42;;;;;;;39.33;23.27;;;;;;;;;;5070868;28;20175;-64
2023/05/06 04:53:09;;;;;;;45.38;23.88;;;;;;;;;;5068123;28;20494;-65
2023/05/06 04:55:35;;;;;;;38.13;22.88;;;;;;;;;;5076338;28;20143;-65
2023/05/06 04:58:01;;;;;;;42.80;23.25;;;;;;;;;;5076172;28;20040;-65
2023/05/06 05:00:27;;;;;;;35.88;21.60;;;;;;;;;;5074427;28;20076;-65
2023/05/06 05:02:53;;;;;;;38.65;23.42;;;;;;;;;;5074083;28;20126;-65
2023/05/06 05:05:20;;;;;;;41.25;23.00;;;;;;;;;;5072546;28;20048;-65
2023/05/06 05:07:46;;;;;;;38.70;21.80;;;;;;;;;;5071997;28;20438;-66
2023/05/06 05:10:12;;;;;;;48.45;23.77;;;;;;;;;;5071999;28;20036;-65
2023/05/06 05:12:38;;;;;;;35.22;21.33;;;;;;;;;;5072355;28;20044;-65
2023/05/06 05:15:05;;;;;;;38.05;22.08;;;;;;;;;;5070273;28;20484;-65
2023/05/06 05:17:31;;;;;;;35.55;21.83;;;;;;;;;;5072545;28;20048;-65
2023/05/06 05:19:57;;;;;;;37.60;21.63;;;;;;;;;;5066921;28;20067;-65
2023/05/06 05:22:23;;;;;;;41.38;23.40;;;;;;;;;;5067968;28;20040;-65
2023/05/06 05:24:49;;;;;;;38.58;23.45;;;;;;;;;;5066119;28;20140;-65
2023/05/06 05:27:15;;;;;;;36.65;22.77;;;;;;;;;;5068407;28;20123;-65
2023/05/06 05:29:42;;;;;;;37.53;24.45;;;;;;;;;;5066816;28;20052;-66
2023/05/06 05:32:08;;;;;;;40.08;24.75;;;;;;;;;;5071258;28;20051;-76
2023/05/06 05:34:35;;;;;;;44.85;24.00;;;;;;;;;;5074086;28;20046;-65
2023/05/06 05:37:01;;;;;;;41.58;23.85;;;;;;;;;;5086974;27;20157;-65
2023/05/06 05:39:27;;;;;;;42.28;22.67;;;;;;;;;;5075870;28;20039;-65
2023/05/06 05:41:53;;;;;;;39.58;23.08;;;;;;;;;;5092753;27;20701;-65
2023/05/06 05:44:19;;;;;;;43.20;23.13;;;;;;;;;;5091791;28;20035;-65
2023/05/06 05:46:46;;;;;;;40.30;21.38;;;;;;;;;;5070534;28;20066;-65
2023/05/06 05:49:12;;;;;;;40.70;22.63;;;;;;;;;;5069784;27;20474;-65
2023/05/06 05:51:38;;;;;;;41.17;21.88;;;;;;;;;;5070447;28;20040;-64
2023/05/06 05:54:04;;;;;;;37.05;20.60;;;;;;;;;;5055005;28;20063;-65
2023/05/06 05:56:30;;;;;;;35.13;20.48;;;;;;;;;;5092934;27;20035;-64
2023/05/06 05:58:56;;;;;;;35.40;19.83;;;;;;;;;;5073070;28;20439;-65
2023/05/06 06:01:22;;;;;;;33.35;20.50;;;;;;;;;;5089373;28;20078;-64
2023/05/06 06:03:48;;;;;;;42.15;20.67;;;;;;;;;;5078881;28;20044;-65
2023/05/06 06:06:15;;;;;;;35.17;19.25;;;;;;;;;;5074982;27;20073;-65
2023/05/06 06:08:41;;;;;;;29.83;18.58;;;;;;;;;;5070199;28;20031;-64
2023/05/06 06:11:07;;;;;;;33.53;17.38;;;;;;;;;;5074987;28;20040;-65
2023/05/06 06:13:33;;;;;;;32.13;17.05;;;;;;;;;;5070803;28;20058;-64
2023/05/06 06:15:59;;;;;;;26.85;17.05;;;;;;;;;;5090843;28;21986;-64
2023/05/06 06:18:25;;;;;;;23.58;14.65;;;;;;;;;;5068267;28;20533;-64
2023/05/06 06:20:51;;;;;;;25.17;15.55;;;;;;;;;;5096990;28;20115;-65
2023/05/06 06:23:18;;;;;;;24.85;14.63;;;;;;;;;;5096623;28;20052;-64
2023/05/06 06:25:44;;;;;;;19.58;12.35;;;;;;;;;;5096885;28;20044;-64
2023/05/06 06:28:10;;;;;;;22.83;14.52;;;;;;;;;;5092448;28;20044;-64
2023/05/06 06:30:36;;;;;;;22.92;13.27;;;;;;;;;;5095267;28;20079;-64
2023/05/06 06:33:02;;;;;;;22.40;12.77;;;;;;;;;;5079135;28;20048;-64
2023/05/06 06:35:28;;;;;;;23.88;13.48;;;;;;;;;;5089179;28;20044;-65
2023/05/06 06:37:55;;;;;;;21.33;14.25;;;;;;;;;;5094070;27;20046;-64
2023/05/06 06:40:21;;;;;;;21.30;13.60;;;;;;;;;;5076369;28;20044;-65
2023/05/06 06:42:47;;;;;;;28.88;15.35;;;;;;;;;;5099944;28;20044;-64
2023/05/06 06:45:14;;;;;;;23.77;15.07;;;;;;;;;;5080710;28;20063;-64
2023/05/06 06:47:40;;;;;;;34.03;17.70;;;;;;;;;;5081554;28;20048;-65
2023/05/06 06:50:07;;;;;;;22.25;13.77;;;;;;;;;;5097452;28;20051;-65
2023/05/06 06:52:34;;;;;;;19.77;12.77;;;;;;;;;;5075324;28;20047;-65
2023/05/06 06:55:01;;;;;;;18.80;12.73;;;;;;;;;;5074170;28;20047;-65
2023/05/06 06:57:27;;;;;;;20.05;13.30;;;;;;;;;;5086405;28;20655;-65
2023/05/06 06:59:54;;;;;;;22.08;12.90;;;;;;;;;;5092887;28;20076;-65
2023/05/06 07:02:20;;;;;;;21.05;13.15;;;;;;;;;;5096649;28;20552;-65
2023/05/06 07:04:47;;;;;;;26.27;13.80;;;;;;;;;;5072630;28;20044;-65
2023/05/06 07:07:13;;;;;;;19.83;12.27;;;;;;;;;;5079686;28;20046;-65
2023/05/06 07:09:39;;;;;;;13.55;9.95;;;;;;;;;;5075237;28;20036;-65
2023/05/06 07:12:06;;;;;;;12.63;8.57;;;;;;;;;;5096135;28;20043;-66
2023/05/06 07:14:32;;;;;;;14.70;8.63;;;;;;;;;;5074342;28;20119;-65
2023/05/06 07:17:00;;;;;;;11.38;7.82;;;;;;;;;;5091955;28;20071;-63
2023/05/06 07:19:26;;;;;;;10.43;6.85;;;;;;;;;;5088444;28;20384;-63
2023/05/06 07:21:53;;;;;;;9.05;6.00;;;;;;;;;;5088319;28;20054;-63
2023/05/06 07:24:19;;;;;;;9.45;5.82;;;;;;;;;;5073265;28;20036;-63
2023/05/06 07:26:46;;;;;;;10.10;5.53;;;;;;;;;;5089178;28;20039;-63
2023/05/06 07:29:12;;;;;;;11.63;5.55;;;;;;;;;;5091409;28;20358;-64
2023/05/06 07:31:38;;;;;;;7.75;4.63;;;;;;;;;;5089508;28;20415;-63
2023/05/06 07:34:04;;;;;;;7.10;4.55;;;;;;;;;;5089248;28;20051;-63
2023/05/06 07:36:37;;;;;;;7.70;4.97;;;;;;;;;;5088400;28;20043;-63
2023/05/06 07:39:03;;;;;;;11.43;5.32;;;;;;;;;;5068337;28;20079;-64
2023/05/06 07:41:30;;;;;;;10.27;5.40;;;;;;;;;;5071564;28;20040;-64
2023/05/06 07:43:56;;;;;;;10.32;5.45;;;;;;;;;;5097451;28;20040;-63
2023/05/06 07:46:22;;;;;;;7.78;5.05;;;;;;;;;;5093120;28;20110;-66
2023/05/06 07:48:48;;;;;;;8.05;4.82;;;;;;;;;;5073104;28;20043;-64
2023/05/06 07:51:14;;;;;;;9.25;5.30;;;;;;;;;;5094694;27;20047;-63
2023/05/06 07:53:40;;;;;;;8.88;5.65;;;;;;;;;;5078945;27;20043;-65
2023/05/06 07:56:06;;;;;;;8.75;5.60;;;;;;;;;;5075138;28;20184;-65
2023/05/06 07:58:32;;;;;;;9.65;5.70;;;;;;;;;;5094183;27;20105;-65
2023/05/06 08:00:59;;;;;;;10.20;5.80;;;;;;;;;;5073395;28;20322;-64
2023/05/06 08:03:25;;;;;;;9.02;6.40;;;;;;;;;;5072001;28;20059;-65
2023/05/06 08:05:51;;;;;;;18.70;5.88;;;;;;;;;;5071645;28;20051;-65
2023/05/06 08:08:18;;;;;;;9.43;5.68;;;;;;;;;;5071442;27;20379;-64
2023/05/06 08:10:44;;;;;;;8.18;5.90;;;;;;;;;;5073641;28;20103;-65
2023/05/06 08:13:10;;;;;;;10.73;6.60;;;;;;;;;;5088708;27;20051;-65
2023/05/06 08:15:37;;;;;;;10.38;6.88;;;;;;;;;;5073644;28;20075;-65
2023/05/06 08:18:03;;;;;;;12.43;6.90;;;;;;;;;;5071819;28;20052;-65
2023/05/06 08:20:29;;;;;;;9.40;5.82;;;;;;;;;;5077989;28;20048;-65
2023/05/06 08:22:55;;;;;;;7.80;6.05;;;;;;;;;;5075647;27;20047;-64
2023/05/06 08:25:21;;;;;;;10.05;6.03;;;;;;;;;;5091996;27;20055;-65
2023/05/06 08:27:48;;;;;;;10.10;6.35;;;;;;;;;;5072481;28;20487;-65
2023/05/06 08:30:14;;;;;;;7.70;5.65;;;;;;;;;;5092851;27;20060;-65
2023/05/06 08:32:40;;;;;;;8.43;6.57;;;;;;;;;;5088999;27;20052;-65
2023/05/06 08:35:07;;;;;;;9.65;6.15;;;;;;;;;;5089631;27;20135;-64
2023/05/06 08:37:33;;;;;;;9.52;6.68;;;;;;;;;;5072052;28;20067;-65
2023/05/06 08:39:59;;;;;;;8.90;6.20;;;;;;;;;;5072950;27;20122;-65
2023/05/06 08:42:25;;;;;;;12.93;6.75;;;;;;;;;;5094045;27;20052;-65
2023/05/06 08:44:52;;;;;;;11.15;8.10;;;;;;;;;;5076235;27;20047;-65
2023/05/06 08:47:19;;;;;;;12.88;7.15;;;;;;;;;;5090160;28;20053;-65
2023/05/06 08:49:46;;;;;;;10.98;7.50;;;;;;;;;;5092760;27;20102;-65
2023/05/06 08:52:12;;;;;;;12.35;7.65;;;;;;;;;;5090194;28;20044;-65
2023/05/06 08:54:38;;;;;;;10.43;8.05;;;;;;;;;;5071273;28;20074;-65
2023/05/06 08:57:06;;;;;;;11.85;8.98;;;;;;;;;;5090877;27;20101;-65
2023/05/06 08:59:33;;;;;;;12.48;7.90;;;;;;;;;;5087588;27;20040;-65
2023/05/06 09:02:00;;;;;;;13.27;8.35;;;;;;;;;;5073441;28;20090;-65
2023/05/06 09:04:27;;;;;;;12.90;8.35;;;;;;;;;;5089664;28;20180;-65
2023/05/06 09:06:53;;;;;;;11.85;7.40;;;;;;;;;;5069866;28;20154;-65
2023/05/06 09:09:19;;;;;;;11.50;7.30;;;;;;;;;;5087893;27;20125;-65
2023/05/06 09:11:47;;;;;;;14.00;6.80;;;;;;;;;;5091144;27;20055;-65
2023/05/06 09:14:14;;;;;;;11.30;7.88;;;;;;;;;;5089265;27;20054;-65
2023/05/06 09:16:42;;;;;;;11.75;7.53;;;;;;;;;;5075326;28;20043;-65
2023/05/06 09:19:08;;;;;;;14.73;8.50;;;;;;;;;;5075111;28;20044;-64
2023/05/06 09:21:36;;;;;;;12.85;7.95;;;;;;;;;;5072374;28;20071;-65
2023/05/06 09:24:03;;;;;;;12.57;8.23;;;;;;;;;;5089303;28;20059;-65
2023/05/06 09:26:30;;;;;;;14.05;9.20;;;;;;;;;;5075435;28;20071;-65
2023/05/06 09:28:57;;;;;;;12.05;7.78;;;;;;;;;;5095152;28;20394;-65
2023/05/06 09:31:24;;;;;;;11.80;8.60;;;;;;;;;;5070117;28;20518;-65
2023/05/06 09:33:51;;;;;;;13.85;9.02;;;;;;;;;;5069578;28;20040;-65
2023/05/06 09:36:17;;;;;;;13.32;9.40;;;;;;;;;;5094211;27;20124;-65
2023/05/06 09:38:43;;;;;;;14.77;9.25;;;;;;;;;;5071602;28;20184;-65
2023/05/06 09:41:10;;;;;;;10.90;8.70;;;;;;;;;;5076737;28;20115;-65
2023/05/06 09:43:40;;;;;;;13.35;9.55;;;;;;;;;;5088755;27;20051;-65
2023/05/06 09:46:07;;;;;;;12.40;9.07;;;;;;;;;;5089131;28;20092;-65
2023/05/06 09:48:35;;;;;;;14.05;9.98;;;;;;;;;;5072877;28;20098;-65
2023/05/06 09:51:01;;;;;;;16.15;10.30;;;;;;;;;;5087276;27;20048;-65
2023/05/06 09:53:27;;;;;;;19.08;12.25;;;;;;;;;;5077140;28;20055;-65
2023/05/06 09:55:57;;;;;;;15.25;11.27;;;;;;;;;;5088918;28;20520;-65
2023/05/06 09:58:23;;;;;;;17.15;12.25;;;;;;;;;;5076987;28;20062;-65
2023/05/06 10:00:51;;;;;;;17.88;11.93;;;;;;;;;;5088201;27;20440;-64
2023/05/06 10:03:18;;;;;;;15.18;11.52;;;;;;;;;;5088997;28;20479;-64
2023/05/06 10:05:45;;;;;;;13.30;10.27;;;;;;;;;;5071297;28;20079;-65
2023/05/06 10:08:17;;;;;;;18.02;11.20;;;;;;;;;;5069968;27;20047;-65
2023/05/06 10:10:43;;;;;;;12.95;9.60;;;;;;;;;;5086914;28;20052;-64
2023/05/06 10:13:10;;;;;;;12.70;9.30;;;;;;;;;;5089044;27;20040;-64
2023/05/06 10:15:37;;;;;;;16.73;11.50;;;;;;;;;;5071207;28;20059;-64
2023/05/06 10:18:04;;;;;;;15.25;11.68;;;;;;;;;;5070527;28;20043;-64
2023/05/06 10:20:31;;;;;;;15.77;12.10;;;;;;;;;;5091527;28;20043;-64
2023/05/06 10:22:58;;;;;;;16.63;12.90;;;;;;;;;;5072739;28;20055;-65
2023/05/06 10:25:30;;;;;;;17.27;14.43;;;;;;;;;;5090474;27;20134;-65
2023/05/06 10:27:56;;;;;;;17.17;13.38;;;;;;;;;;5069961;28;20042;-65
2023/05/06 10:30:23;;;;;;;18.67;13.82;;;;;;;;;;5092373;27;20048;-65
2023/05/06 10:32:51;;;;;;;17.48;14.45;;;;;;;;;;5087873;28;20071;-65
2023/05/06 10:35:22;;;;;;;18.80;14.45;;;;;;;;;;5073236;28;20927;-65
2023/05/06 10:37:50;;;;;;;20.40;15.68;;;;;;;;;;5071240;28;20112;-65
2023/05/06 10:40:16;;;;;;;19.05;14.27;;;;;;;;;;5073034;28;20189;-65
2023/05/06 10:42:42;;;;;;;20.45;14.43;;;;;;;;;;5073911;28;20047;-65
2023/05/06 10:45:09;;;;;;;16.70;13.55;;;;;;;;;;5072845;28;20039;-65
2023/05/06 10:47:54;;;;;;;17.08;12.73;;;;;;;;;;5092476;28;20071;-66
2023/05/06 10:50:23;;;;;;;16.30;13.27;;;;;;;;;;5072491;28;20054;-65
2023/05/06 10:52:51;;;;;;;16.55;12.00;;;;;;;;;;5092898;28;20138;-66
2023/05/06 10:55:31;;;;;;;15.52;12.45;;;;;;;;;;5056569;28;20364;-65
2023/05/06 10:58:04;;;;;;;18.58;12.88;;;;;;;;;;5094634;28;20372;-66
2023/05/06 11:00:31;;;;;;;16.23;10.80;;;;;;;;;;5074392;28;20054;-65
2023/05/06 11:02:57;;;;;;;15.77;11.10;;;;;;;;;;5092167;28;20070;-65
2023/05/06 11:05:23;;;;;;;13.48;9.63;;;;;;;;;;5091178;28;20040;-68
2023/05/06 11:07:51;;;;;;;15.25;10.63;;;;;;;;;;5072278;28;20090;-67
2023/05/06 11:10:31;;;;;;;16.58;10.98;;;;;;;;;;5075095;28;20063;-68
2023/05/06 11:12:57;;;;;;;13.20;10.35;;;;;;;;;;5094528;28;20675;-68
2023/05/06 11:15:38;;;;;;;23.10;13.18;;;;;;;;;;5076070;28;20394;-67
2023/05/06 11:18:26;;;;;;;19.40;13.65;;;;;;;;;;5096305;28;20105;-68
2023/05/06 11:20:59;;;;;;;19.40;14.30;;;;;;;;;;5072569;28;20048;-67
2023/05/06 11:23:42;;;;;;;16.92;12.00;;;;;;;;;;5096175;28;20377;-67
2023/05/06 11:26:10;;;;;;;17.40;12.98;;;;;;;;;;5076166;28;20056;-67
2023/05/06 11:28:36;;;;;;;15.95;10.43;;;;;;;;;;5073837;28;20498;-67
2023/05/06 11:31:02;;;;;;;13.85;9.77;;;;;;;;;;5076808;28;20071;-67
2023/05/06 11:33:31;;;;;;;14.73;9.77;;;;;;;;;;5080903;28;20048;-77
2023/05/06 11:35:59;;;;;;;13.60;9.20;;;;;;;;;;5078195;28;20048;-68
2023/05/06 11:38:25;;;;;;;13.55;7.97;;;;;;;;;;5095534;28;20076;-67
2023/05/06 11:40:52;;;;;;;13.40;10.05;;;;;;;;;;5074921;28;20051;-67
2023/05/06 11:43:18;;;;;;;17.80;10.93;;;;;;;;;;5074195;28;20040;-67
2023/05/06 11:45:45;;;;;;;16.25;11.35;;;;;;;;;;5076268;28;20039;-67
2023/05/06 11:48:12;;;;;;;20.67;11.95;;;;;;;;;;5095549;28;20036;-67
2023/05/06 11:50:38;;;;;;;14.18;11.27;;;;;;;;;;5093374;28;20051;-66
2023/05/06 11:53:04;;;;;;;17.90;8.23;;;;;;;;;;5096450;28;20040;-67
2023/05/06 11:55:30;;;;;;;13.90;7.97;;;;;;;;;;5094635;28;20051;-67
2023/05/06 11:57:56;;;;;;;12.18;8.85;;;;;;;;;;5075677;28;20044;-67
2023/05/06 12:00:23;;;;;;;16.70;9.95;;;;;;;;;;5077050;28;20044;-66
2023/05/06 12:02:49;;;;;;;13.65;9.55;;;;;;;;;;5094662;28;20047;-66
2023/05/06 12:05:15;;;;;;;15.00;9.10;;;;;;;;;;5102228;28;20043;-66
2023/05/06 12:07:42;;;;;;;13.68;8.18;;;;;;;;;;5099096;28;20220;-65
2023/05/06 12:10:08;;;;;;;14.07;7.68;;;;;;;;;;5077132;28;20043;-65
2023/05/06 12:12:34;;;;;;;10.18;6.00;;;;;;;;;;5078061;28;20059;-65
2023/05/06 12:15:02;;;;;;;9.40;5.15;;;;;;;;;;5079732;28;20055;-65
2023/05/06 12:17:28;;;;;;;12.35;8.27;;;;;;;;;;5099304;28;20406;-65
2023/05/06 12:19:55;;;;;;;13.02;8.77;;;;;;;;;;5096446;28;20039;-65
2023/05/06 12:22:23;;;;;;;17.80;10.20;;;;;;;;;;5100241;28;20054;-66
2023/05/06 12:24:49;;;;;;;13.40;7.60;;;;;;;;;;5101737;28;20432;-65
2023/05/06 12:27:30;;;;;;;11.93;8.02;;;;;;;;;;5099245;28;20380;-65
2023/05/06 12:29:56;;;;;;;10.45;7.60;;;;;;;;;;5099818;28;20047;-66
2023/05/06 12:32:22;;;;;;;10.35;7.18;;;;;;;;;;5098936;28;20101;-65
2023/05/06 12:34:48;;;;;;;10.75;6.30;;;;;;;;;;5078328;28;20047;-65
2023/05/06 12:37:26;;;;;;;9.88;5.35;;;;;;;;;;5098973;28;20116;-65
2023/05/06 12:39:52;;;;;;;11.20;6.22;;;;;;;;;;5076854;28;20135;-66
2023/05/06 12:42:20;;;;;;;14.38;7.63;;;;;;;;;;5080112;28;20059;-65
2023/05/06 12:44:46;;;;;;;13.73;8.00;;;;;;;;;;5081002;28;20045;-65
2023/05/06 12:47:25;;;;;;;12.23;8.35;;;;;;;;;;5100461;28;20048;-65
2023/05/06 12:49:51;;;;;;;11.82;8.65;;;;;;;;;;5083121;28;20040;-65
2023/05/06 12:52:18;;;;;;;10.55;7.78;;;;;;;;;;5080735;28;20088;-65
2023/05/06 12:54:44;;;;;;;12.30;7.75;;;;;;;;;;5104258;28;20441;-65
2023/05/06 12:57:11;;;;;;;10.75;7.82;;;;;;;;;;5079479;28;20086;-65
2023/05/06 12:59:37;;;;;;;14.95;9.48;;;;;;;;;;5079625;28;20168;-65
2023/05/06 13:02:03;;;;;;;15.18;8.40;;;;;;;;;;5102754;28;20055;-65
2023/05/06 13:04:30;;;;;;;13.32;7.53;;;;;;;;;;5079828;28;20055;-65
2023/05/06 13:06:56;;;;;;;15.80;9.55;;;;;;;;;;5056844;28;20139;-65
2023/05/06 13:09:23;;;;;;;11.13;7.90;;;;;;;;;;5076629;28;20124;-65
2023/05/06 13:11:49;;;;;;;15.00;8.15;;;;;;;;;;5077363;28;20063;-65
2023/05/06 13:14:15;;;;;;;13.57;8.85;;;;;;;;;;5089172;28;20143;-64
2023/05/06 13:16:42;;;;;;;10.23;6.93;;;;;;;;;;5096447;28;20040;-64
2023/05/06 13:19:09;;;;;;;11.55;7.57;;;;;;;;;;5076642;28;20105;-65
2023/05/06 13:21:37;;;;;;;16.60;8.38;;;;;;;;;;5094539;28;20036;-64
2023/05/06 13:24:03;;;;;;;14.68;8.98;;;;;;;;;;5075804;28;20044;-64
2023/05/06 13:26:29;;;;;;;12.63;7.80;;;;;;;;;;5091965;27;20444;-64
2023/05/06 13:28:55;;;;;;;12.63;8.48;;;;;;;;;;5074107;28;20055;-65
2023/05/06 13:31:22;;;;;;;16.10;9.63;;;;;;;;;;5095423;28;20054;-65
2023/05/06 13:33:48;;;;;;;14.10;9.40;;;;;;;;;;5076306;28;20047;-64
2023/05/06 13:36:15;;;;;;;19.70;9.82;;;;;;;;;;5093601;28;20036;-64
2023/05/06 13:38:41;;;;;;;12.65;8.48;;;;;;;;;;5090800;28;20078;-64
2023/05/06 13:41:07;;;;;;;15.90;7.13;;;;;;;;;;5076658;28;20100;-64
2023/05/06 13:43:33;;;;;;;15.18;9.07;;;;;;;;;;5093112;28;20495;-65
2023/05/06 13:45:59;;;;;;;14.32;7.65;;;;;;;;;;5092483;28;20118;-63
2023/05/06 13:48:26;;;;;;;10.35;6.93;;;;;;;;;;5093722;28;20440;-64
2023/05/06 13:50:52;;;;;;;11.07;6.40;;;;;;;;;;5075456;28;20395;-65
2023/05/06 13:53:19;;;;;;;10.25;5.45;;;;;;;;;;5092495;28;20048;-64
2023/05/06 13:55:45;;;;;;;8.88;5.45;;;;;;;;;;5092853;28;20059;-64
2023/05/06 13:58:11;;;;;;;11.73;4.80;;;;;;;;;;5090032;27;20570;-64
2023/05/06 14:00:38;;;;;;;12.95;4.95;;;;;;;;;;5094812;27;20040;-65
2023/05/06 14:03:04;;;;;;;7.57;4.63;;;;;;;;;;5088317;28;20052;-64
2023/05/06 14:05:30;;;;;;;8.90;5.50;;;;;;;;;;5072080;28;20391;-64
2023/05/06 14:07:56;;;;;;;8.05;4.57;;;;;;;;;;5093846;27;20052;-65
2023/05/06 14:10:22;;;;;;;9.75;4.82;;;;;;;;;;5057457;28;20028;-65
2023/05/06 14:12:48;;;;;;;12.55;4.55;;;;;;;;;;5092553;27;20052;-65
2023/05/06 14:15:15;;;;;;;8.32;4.05;;;;;;;;;;5094403;28;20364;-64
2023/05/06 14:17:41;;;;;;;6.13;3.60;;;;;;;;;;5092988;28;20044;-64
2023/05/06 14:20:08;;;;;;;8.68;3.88;;;;;;;;;;5092613;27;20067;-64
2023/05/06 14:22:35;;;;;;;14.50;11.20;;;;;;;;;;5068748;28;20060;-65